Carr, Colorado
Current Conditions -  °F | °C
As of 9:56 PM on Sunday 21 Dec 2014 (Local Time) from KFEW Reporting Station
Broken Clouds Broken Clouds  
Wind Chill: 21°   Ceiling: 7500
Heat Index: 32°   Visibility: 10mi
Dew Point: 24°   Wind: 16mph
Humidity: 73%   Direction: 320°NW
Pressure: 29.59"   Gusts: 25mph
Location:  40.9°N, 104.88°W
Report Text: KFEW 220456Z AUTO 32014G22KT 10SM BKN075 00/M04 A2959 RMK AO2 SHSNE07SNB07E17 SLP017 P0002 T00001043 $
Loading
Personal Weather Stations






























Interactive Weather Map New forecast layout! Learn more

10-Day Weather Forecast

Advertisements
Track Severe Weather on mobile